sim
Sign-in with your pilot id or email,
or register
Callsign
Passwort

Schedule Details

Flight Number: DLH2141
Departure: Munster Osnabruck International -?Airport (EDDG) at 04:45
Arrival: Munich Airport (EDDM) at 05:50
Route: Lufthansa Passenger Schedule. Enter filed route here before submitting Pirep.

Weather Information
Getting current METAR information for EDDG 010220Z 11004KT 060V190 9999 SCT033 11/10 Q1007 NOSIG
Getting current METAR information for EDDM 010220Z 00000KT 0800 R08L/0350N R08R/0700N FG NSC 04/03 Q1010 BECMG 0500 BKN001

Schedule Frequency

Route Map